San Diego, California
Current Conditions -  °F | °C
As of 5:51 AM on Monday 26 Jan 2015 (Local Time) from KSAN Reporting Station
Broken Clouds Broken Clouds  
Wind Chill: 17°   Ceiling: 20000
Heat Index: 17°   Visibility: 10mi
Dew Point:   Wind: 0mph
Humidity: 35%   Direction: NA
Pressure: 29.98"   Gusts: NA
Location:  32.72°N, 117.16°W
Report Text: KSAN 261351Z 00000KT 10SM SCT150 BKN200 17/01 A2998 RMK AO2 SLP153 T01670011
Loading
Personal Weather Stations






























Interactive Weather Map New forecast layout! Learn more

10-Day Weather Forecast

Advertisements
Track Severe Weather on mobile